Time;durP1;ratioP1;P1;durP2;ratioP2;P2;SDS_P1;SDS_P2;PMS_P1;PMS_P2;Temp;Humidity;BMP_temperature;BMP_pressure;BME280_temperature;BME280_humidity;BME280_pressure;Samples;Min_cycle;Max_cycle;Signal;HPM_P1;HPM_P2
2022/10/16 00:01:16;;;;;;;15.00;9.85;;;19.60;90.90;;;19.46;53.96;98903.22;5046200;28;20036;-78
2022/10/16 00:03:43;;;;;;;11.23;9.20;;;19.60;90.90;;;19.48;53.76;98901.75;5064698;28;20037;-78
2022/10/16 00:06:10;;;;;;;13.40;9.45;;;19.60;90.80;;;19.47;53.86;98900.16;5065193;28;20035;-78
2022/10/16 00:08:36;;;;;;;13.15;8.13;;;19.60;91.00;;;19.46;54.18;98897.72;5046950;28;20039;-78
2022/10/16 00:11:13;;;;;;;13.10;9.02;;;19.60;91.00;;;19.46;53.94;98901.28;5065880;28;20044;-77
2022/10/16 00:13:41;;;;;;;10.73;9.05;;;19.60;91.00;;;19.45;53.86;98907.13;5063015;28;20404;-77
2022/10/16 00:16:07;;;;;;;12.98;9.70;;;19.60;90.90;;;19.44;53.82;98922.03;5064903;28;20036;-77
2022/10/16 00:18:34;;;;;;;14.48;9.48;;;19.60;90.90;;;19.45;54.05;98918.13;5063665;28;20230;-77
2022/10/16 00:21:05;;;;;;;11.48;8.60;;;19.60;90.90;;;19.44;53.96;98917.31;5069114;28;20039;-78
2022/10/16 00:23:31;;;;;;;10.88;7.80;;;19.60;90.90;;;19.48;54.30;98920.19;5084494;28;20044;-78
2022/10/16 00:25:59;;;;;;;10.65;7.85;;;19.60;91.10;;;19.45;54.45;98926.38;5074190;28;20036;-78
2022/10/16 00:28:25;;;;;;;11.52;8.32;;;19.60;91.10;;;19.44;54.06;98925.56;5048237;28;20044;-78
2022/10/16 00:30:51;;;;;;;11.88;8.57;;;19.60;91.00;;;19.47;54.05;98932.34;5069391;28;20072;-78
2022/10/16 00:33:17;;;;;;;14.02;8.63;;;19.60;90.90;;;19.45;54.17;98923.63;5082657;28;20040;-78
2022/10/16 00:35:43;;;;;;;13.02;9.18;;;19.60;90.90;;;19.45;53.91;98937.38;5086260;28;20414;-78
2022/10/16 00:38:10;;;;;;;13.65;9.35;;;19.60;90.90;;;19.45;54.11;98940.13;5073520;28;20044;-77
2022/10/16 00:40:36;;;;;;;12.30;9.30;;;19.60;91.00;;;19.47;54.36;98935.09;5066162;28;20539;-77
2022/10/16 00:43:02;;;;;;;9.52;7.43;;;19.60;91.10;;;19.46;54.46;98930.72;5036579;28;20111;-77
2022/10/16 00:45:28;;;;;;;12.27;8.35;;;19.60;91.10;;;19.44;54.02;98933.81;5067799;28;20060;-77
2022/10/16 00:47:55;;;;;;;12.20;8.77;;;19.60;90.90;;;19.42;53.98;98929.78;5051034;28;20040;-77
2022/10/16 00:50:33;;;;;;;13.80;8.30;;;19.60;90.90;;;19.42;54.17;98935.28;5050816;28;20105;-77
2022/10/16 00:53:00;;;;;;;13.77;8.63;;;19.60;90.90;;;19.43;54.05;98937.69;5074287;28;20040;-77
2022/10/16 00:55:28;;;;;;;13.05;8.65;;;19.60;90.90;;;19.44;54.33;98941.28;5064433;28;20517;-78
2022/10/16 00:57:57;;;;;;;11.88;8.93;;;19.60;91.10;;;19.44;54.58;98938.53;5050300;28;20059;-77
2022/10/16 01:00:25;;;;;;;14.95;9.35;;;19.60;91.10;;;19.44;54.26;98935.78;5068609;28;20127;-78
2022/10/16 01:02:57;;;;;;;14.88;9.20;;;19.60;91.00;;;19.43;54.33;98936.88;5057809;28;20483;-77
2022/10/16 01:05:23;;;;;;;;;;;19.60;91.00;;;19.44;54.23;98935.78;5069039;28;20127;-77
2022/10/16 01:08:34;;;;;;;12.95;9.48;;;19.60;90.90;;;19.43;54.19;98945.94;5079732;28;20426;-77
2022/10/16 01:11:59;;;;;;;12.30;8.98;;;19.60;90.90;;;19.43;54.44;98943.19;5088023;28;20754;-78
2022/10/16 01:14:54;;;;;;;13.95;9.50;;;19.60;91.10;;;19.45;54.33;98945.63;5067409;28;20499;-77
2022/10/16 01:17:46;;;;;;;12.45;8.50;;;19.60;91.20;;;19.44;54.30;98949.53;5079334;28;20412;-78
2022/10/16 01:20:31;;;;;;;12.50;8.40;;;19.60;91.00;;;19.45;53.98;98946.44;5081571;28;20075;-77
2022/10/16 01:23:52;;;;;;;11.15;8.65;;;19.60;91.00;;;19.44;54.40;98952.28;5079978;28;20467;-78
2022/10/16 01:26:23;;;;;;;11.38;8.75;;;19.60;90.90;;;19.42;54.54;98944.34;5079369;28;20056;-78
2022/10/16 01:29:21;;;;;;;13.27;8.60;;;19.60;91.10;;;19.43;54.59;98945.16;5088409;28;20044;-78
2022/10/16 01:31:57;;;;;;;11.75;9.07;;;19.60;91.20;;;19.43;54.62;98950.66;5070081;28;20404;-78
2022/10/16 01:34:32;;;;;;;13.38;9.73;;;19.60;91.10;;;19.41;54.16;98947.41;5088896;28;20713;-78
2022/10/16 01:37:26;;;;;;;13.82;9.05;;;19.60;91.00;;;19.42;54.06;98952.59;5071225;28;20050;-78
2022/10/16 01:39:52;;;;;;;14.18;10.15;;;19.60;91.00;;;19.41;54.11;98945.50;5055817;28;20084;-78
2022/10/16 01:42:23;;;;;;;11.60;8.65;;;19.60;91.00;;;19.41;54.62;98944.66;5050278;28;20050;-78
2022/10/16 01:44:51;;;;;;;15.38;9.70;;;19.60;91.10;;;19.45;54.65;98945.63;5065397;28;20040;-78
2022/10/16 01:47:17;;;;;;;12.05;9.20;;;19.60;91.20;;;19.44;54.64;98955.03;5065884;28;20080;-77
2022/10/16 01:49:43;;;;;;;12.55;8.65;;;19.60;91.20;;;19.43;54.27;98945.94;5062661;28;20044;-77
2022/10/16 01:52:16;;;;;;;13.30;9.43;;;19.60;91.00;;;19.41;54.44;98952.91;5067157;28;20050;-78
2022/10/16 01:54:44;;;;;;;12.98;9.07;;;19.60;91.00;;;19.41;54.47;98950.16;5067134;28;20046;-78
2022/10/16 01:57:10;;;;;;;11.60;9.02;;;19.60;91.00;;;19.42;54.35;98947.09;5052317;28;20062;-78
2022/10/16 01:59:44;;;;;;;14.40;9.00;;;19.60;91.00;;;19.44;54.59;98944.81;5063110;28;20066;-78
2022/10/16 02:02:11;;;;;;;13.95;9.25;;;19.60;91.20;;;19.43;54.85;98945.16;5051728;28;20063;-77
2022/10/16 02:04:57;;;;;;;11.50;8.57;;;19.60;91.20;;;19.41;54.60;98950.16;5053720;28;20040;-77
2022/10/16 02:07:23;;;;;;;11.18;8.55;;;19.60;91.10;;;19.39;54.41;98947.75;5065978;28;20079;-78
2022/10/16 02:09:50;;;;;;;13.40;8.93;;;19.60;91.10;;;19.40;54.42;98943.06;5083963;28;20043;-78
2022/10/16 02:12:28;;;;;;;17.45;11.70;;;19.60;91.10;;;19.40;54.56;98943.06;5065641;28;20383;-78
2022/10/16 02:14:55;;;;;;;11.13;8.55;;;19.60;91.10;;;19.40;54.57;98948.56;5068541;28;20040;-78
2022/10/16 02:17:21;;;;;;;14.00;8.57;;;19.60;91.20;;;19.40;54.92;98945.81;5083468;28;20037;-78
2022/10/16 02:19:49;;;;;;;13.20;9.20;;;19.60;91.30;;;19.45;54.77;98951.13;5073384;28;20032;-78
2022/10/16 02:22:32;;;;;;;14.57;9.55;;;19.60;91.30;;;19.40;54.50;98956.81;5031985;28;20044;-78
2022/10/16 02:25:28;;;;;;;14.65;9.10;;;19.60;91.10;;;19.40;54.61;98956.81;5063854;28;20033;-78
2022/10/16 02:28:13;;;;;;;11.48;8.60;;;19.60;91.10;;;19.38;54.63;98953.56;5097912;28;20411;-77
2022/10/16 02:30:54;;;;;;;13.95;10.32;;;19.60;91.10;;;19.40;54.70;98956.81;5068804;28;20507;-77
2022/10/16 02:33:20;;;;;;;;;;;19.60;91.20;;;19.41;54.95;98958.41;5047762;28;20044;-78
2022/10/16 02:35:46;;;;;;;13.07;9.30;;;19.60;91.30;;;19.39;54.72;98956.00;5084002;28;20869;-78
2022/10/16 02:38:12;;;;;;;13.30;8.82;;;19.60;91.30;;;19.41;54.74;98956.50;5059637;28;20048;-78
2022/10/16 02:40:39;;;;;;;11.77;8.25;;;19.60;91.20;;;19.38;54.49;98950.81;5060787;28;20119;-77
2022/10/16 02:43:05;;;;;;;13.68;9.45;;;19.60;91.20;;;19.38;54.69;98956.31;5061380;28;20487;-77
2022/10/16 02:45:31;;;;;;;12.30;9.20;;;19.60;91.10;;;19.38;54.65;98959.06;5063990;28;20056;-78
2022/10/16 02:47:57;;;;;;;13.30;9.43;;;19.60;91.10;;;19.39;55.16;98968.97;5056277;28;20391;-78
2022/10/16 02:50:24;;;;;;;13.35;9.52;;;19.60;91.40;;;19.40;55.01;98965.06;5065702;28;20040;-78
2022/10/16 02:52:51;;;;;;;12.25;9.27;;;19.60;91.40;;;19.39;55.12;98968.97;5062904;28;20094;-78
2022/10/16 02:55:17;;;;;;;13.60;9.35;;;19.60;91.30;;;19.39;55.03;98968.97;5062078;28;20036;-78
2022/10/16 02:57:43;;;;;;;13.52;8.98;;;19.60;91.20;;;19.35;54.78;98968.78;5060837;28;20043;-78
2022/10/16 03:00:11;;;;;;;15.90;9.63;;;19.50;91.10;;;19.35;54.72;98962.50;5078755;28;20369;-77
2022/10/16 03:02:37;;;;;;;11.35;8.65;;;19.60;91.20;;;19.39;54.69;98963.47;5068491;28;20483;-78
2022/10/16 03:05:04;;;;;;;14.27;9.68;;;19.60;91.20;;;19.37;55.08;98962.97;5084941;28;20040;-78
2022/10/16 03:07:30;;;;;;;14.10;9.57;;;19.50;91.30;;;19.36;55.36;98972.34;5065323;28;20032;-78
2022/10/16 03:09:57;;;;;;;13.32;10.07;;;19.60;91.40;;;19.38;54.99;98962.63;5077632;28;20158;-78
2022/10/16 03:12:23;;;;;;;18.77;9.57;;;19.60;91.30;;;19.35;54.92;98966.03;5076664;28;20047;-78
2022/10/16 03:14:49;;;;;;;12.55;9.50;;;19.50;91.20;;;19.34;54.94;98967.19;5061568;28;20131;-78
2022/10/16 03:17:16;;;;;;;11.85;9.60;;;19.50;91.20;;;19.33;54.95;98968.31;5060099;28;20131;-78
2022/10/16 03:19:42;;;;;;;12.77;8.95;;;19.50;91.20;;;19.36;55.11;98969.59;5067199;28;20040;-77
2022/10/16 03:22:08;;;;;;;14.57;9.60;;;19.50;91.30;;;19.36;55.19;98975.09;5082874;28;20044;-78
2022/10/16 03:24:34;;;;;;;10.85;8.05;;;19.60;91.40;;;19.35;55.44;98984.50;5049368;28;20387;-78
2022/10/16 03:27:00;;;;;;;11.50;9.20;;;19.50;91.40;;;19.35;55.06;98979.00;5046133;28;20051;-78
2022/10/16 03:29:29;;;;;;;13.05;9.25;;;19.50;91.20;;;19.34;55.00;98980.13;5077817;28;20043;-78
2022/10/16 03:31:56;;;;;;;12.27;9.15;;;19.50;91.20;;;19.34;54.74;98993.88;5062676;28;20044;-77
2022/10/16 03:34:22;;;;;;;10.23;7.82;;;19.50;91.20;;;19.30;54.84;98997.28;5062183;28;20036;-77
2022/10/16 03:36:48;;;;;;;9.55;7.90;;;19.50;91.20;;;19.33;55.30;99001.31;5056584;28;20089;-77
2022/10/16 03:39:14;;;;;;;14.90;9.18;;;19.50;91.50;;;19.30;55.47;99002.78;5078518;28;20048;-77
2022/10/16 03:41:40;;;;;;;14.95;10.50;;;19.50;91.50;;;19.28;55.40;99002.31;5046103;28;20333;-78
2022/10/16 03:44:06;;;;;;;11.70;8.10;;;19.50;91.30;;;19.28;55.30;99010.56;5061411;28;20971;-77
2022/10/16 03:46:32;;;;;;;13.60;8.48;;;19.50;91.30;;;19.29;55.05;99008.63;5061328;28;20107;-77
2022/10/16 03:48:58;;;;;;;10.95;8.55;;;19.40;91.30;;;19.27;54.88;99011.69;5061225;28;20430;-78
2022/10/16 03:51:24;;;;;;;12.63;8.30;;;19.40;91.30;;;19.29;55.13;99009.41;5047597;28;20055;-77
2022/10/16 03:53:51;;;;;;;14.07;9.63;;;19.50;91.40;;;19.29;54.82;99014.13;5074462;28;20037;-78
2022/10/16 03:56:17;;;;;;;12.68;9.45;;;19.50;91.20;;;19.28;54.66;99007.81;5049708;28;20055;-78
2022/10/16 03:58:43;;;;;;;12.88;8.75;;;19.50;91.10;;;19.25;54.64;99013.13;5068784;28;20044;-78
2022/10/16 04:01:09;;;;;;;11.30;8.77;;;19.40;91.00;;;19.25;54.57;99019.44;5078005;28;20073;-78
2022/10/16 04:03:35;;;;;;;11.25;8.50;;;19.50;91.00;;;19.27;54.90;99016.38;5062424;28;20044;-78
2022/10/16 04:06:01;;;;;;;14.15;9.10;;;19.40;91.20;;;19.27;55.07;99017.19;5071464;28;20036;-78
2022/10/16 04:08:27;;;;;;;18.70;9.40;;;19.40;91.40;;;19.27;55.37;99022.69;5083895;28;20466;-77
2022/10/16 04:10:53;;;;;;;14.15;9.05;;;19.40;91.30;;;19.27;54.69;99017.19;5069505;28;20044;-77
2022/10/16 04:13:19;;;;;;;11.77;8.90;;;19.40;91.10;;;19.22;54.70;99017.34;5083371;28;20032;-77
2022/10/16 04:15:45;;;;;;;14.48;9.52;;;19.40;91.00;;;19.24;54.56;99022.53;5091259;28;20051;-77
2022/10/16 04:18:12;;;;;;;13.32;8.35;;;19.40;91.00;;;19.24;54.62;99017.03;5077816;28;20048;-77
2022/10/16 04:20:38;;;;;;;12.40;8.68;;;19.40;91.00;;;19.23;55.06;99024.47;5061257;28;20521;-78
2022/10/16 04:23:04;;;;;;;12.23;9.20;;;19.40;91.30;;;19.25;55.08;99021.38;5075920;28;20045;-77
2022/10/16 04:25:30;;;;;;;10.63;7.95;;;19.40;91.40;;;19.23;54.86;99021.72;5079231;28;20094;-76
2022/10/16 04:27:56;;;;;;;11.68;8.07;;;19.40;91.30;;;19.22;54.47;99024.78;5069102;28;20068;-77
2022/10/16 04:30:22;;;;;;;11.63;8.65;;;19.40;91.10;;;19.22;54.45;99025.59;5064638;28;20109;-77
2022/10/16 04:32:52;;;;;;;12.05;8.50;;;19.40;91.00;;;19.21;54.54;99025.91;5076935;28;20098;-77
2022/10/16 04:35:19;;;;;;;11.38;8.30;;;19.40;91.00;;;19.20;54.50;99027.06;5062631;28;20838;-77
2022/10/16 04:37:45;;;;;;;13.00;8.25;;;19.40;91.10;;;19.22;54.77;99025.59;5059669;28;20059;-77
2022/10/16 04:40:11;;;;;;;12.05;8.48;;;19.40;91.30;;;19.24;54.92;99028.03;5059339;28;20040;-77
2022/10/16 04:42:37;;;;;;;11.23;8.48;;;19.40;91.30;;;19.22;54.57;99031.09;5065294;28;20051;-77
2022/10/16 04:45:05;;;;;;;12.80;8.60;;;19.40;91.10;;;19.22;54.46;99033.84;5078632;28;20044;-77
2022/10/16 04:47:32;;;;;;;12.18;9.02;;;19.40;91.00;;;19.18;54.52;99034.81;5068253;28;20115;-77
2022/10/16 04:50:00;;;;;;;11.20;8.80;;;19.40;91.00;;;19.16;54.50;99043.41;5079511;28;20046;-77
2022/10/16 04:52:27;;;;;;;15.48;8.57;;;19.40;91.00;;;19.19;54.86;99039.19;5052540;28;20131;-77
2022/10/16 04:54:54;;;;;;;12.95;8.77;;;19.40;91.20;;;19.21;54.83;99045.16;5078110;28;20052;-77
2022/10/16 04:57:20;;;;;;;11.23;8.40;;;19.40;91.30;;;19.21;54.87;99042.41;5069221;28;20040;-77
2022/10/16 04:59:46;;;;;;;12.82;9.00;;;19.30;91.20;;;19.19;54.48;99044.69;5075708;28;20048;-77
2022/10/16 05:02:12;;;;;;;13.40;9.07;;;19.30;91.00;;;19.15;54.46;99041.78;5060969;28;20113;-76
2022/10/16 05:04:38;;;;;;;12.82;8.38;;;19.30;91.00;;;19.17;54.18;99039.50;5061500;28;20392;-76
2022/10/16 05:07:04;;;;;;;10.63;8.02;;;19.30;90.90;;;19.18;54.39;99040.31;5062865;28;20127;-76
2022/10/16 05:09:30;;;;;;;10.43;8.63;;;19.30;91.00;;;19.16;54.94;99045.31;5083030;28;20074;-76
2022/10/16 05:11:56;;;;;;;8.88;7.50;;;19.30;91.20;;;19.17;55.01;99038.72;5079056;28;20058;-76
2022/10/16 05:14:22;;;;;;;9.35;7.03;;;19.30;91.30;;;19.16;54.63;99039.81;5081133;28;20796;-76
2022/10/16 05:16:48;;;;;;;9.45;8.18;;;19.30;91.20;;;19.14;54.35;99044.88;5078738;28;20037;-77
2022/10/16 05:19:14;;;;;;;10.48;8.68;;;19.30;91.00;;;19.14;54.22;99051.16;5078349;28;20371;-76
2022/10/16 05:21:40;;;;;;;13.00;8.50;;;19.30;91.00;;;19.17;53.88;99053.25;5049257;28;20040;-76
2022/10/16 05:24:07;;;;;;;13.20;8.88;;;19.30;90.90;;;19.15;54.44;99052.78;5056941;28;20048;-76
2022/10/16 05:26:33;;;;;;;10.68;7.90;;;19.30;91.00;;;19.15;54.76;99046.47;5064415;28;20036;-76
2022/10/16 05:28:59;;;;;;;10.82;8.65;;;19.30;91.30;;;19.14;54.93;99045.66;5083915;28;20070;-77
2022/10/16 05:31:25;;;;;;;10.60;8.02;;;19.20;91.30;;;19.16;54.47;99037.91;5070706;28;20052;-76
2022/10/16 05:33:51;;;;;;;10.40;7.53;;;19.20;91.10;;;19.16;54.20;99037.91;5082568;28;20043;-77
2022/10/16 05:36:18;;;;;;;10.50;7.75;;;19.20;90.90;;;19.13;54.32;99041.28;5037471;28;20044;-77
2022/10/16 05:38:44;;;;;;;11.30;7.93;;;19.30;90.90;;;19.12;54.07;99044.38;5052435;28;20109;-77
2022/10/16 05:41:10;;;;;;;12.18;7.70;;;19.20;90.80;;;19.19;54.44;99047.44;5048603;28;20048;-77
2022/10/16 05:43:36;;;;;;;11.00;8.02;;;19.30;91.20;;;19.20;54.49;99049.84;5065213;28;20040;-78
2022/10/16 05:46:04;;;;;;;13.88;7.80;;;19.30;91.20;;;19.16;54.67;99051.66;5080063;28;20492;-76
2022/10/16 05:48:30;;;;;;;9.32;8.20;;;19.30;91.20;;;19.19;54.20;99055.69;5079943;28;20052;-76
2022/10/16 05:51:02;;;;;;;9.85;7.32;;;19.30;91.00;;;19.18;54.10;99063.13;5082040;28;20376;-76
2022/10/16 05:53:29;;;;;;;9.65;7.60;;;19.30;90.90;;;19.20;54.21;99052.59;5063836;28;20527;-77
2022/10/16 05:55:55;;;;;;;10.02;7.18;;;19.30;91.40;;;19.19;54.44;99062.00;5052438;28;20459;-77
2022/10/16 05:58:22;;;;;;;13.30;7.82;;;19.20;91.00;;;19.19;54.13;99064.75;5032345;28;20141;-76
2022/10/16 06:01:00;;;;;;;12.77;7.75;;;19.30;91.10;;;19.20;54.17;99068.31;5055043;28;20074;-77
2022/10/16 06:03:26;;;;;;;11.02;8.38;;;19.20;91.00;;;19.18;54.54;99082.38;5061578;28;20555;-77
2022/10/16 06:05:52;;;;;;;11.35;7.32;;;19.20;91.20;;;19.20;54.58;99082.84;5060085;28;20041;-77
2022/10/16 06:08:19;;;;;;;8.98;7.32;;;19.20;91.30;;;19.24;54.49;99094.84;5078989;28;20883;-77
2022/10/16 06:10:46;;;;;;;10.48;8.38;;;19.30;91.40;;;19.21;54.33;99090.00;5048324;28;20070;-77
2022/10/16 06:13:12;;;;;;;14.07;7.85;;;19.30;91.20;;;19.25;54.30;99079.94;5070994;28;20044;-77
2022/10/16 06:15:41;;;;;;;9.38;7.70;;;19.30;91.20;;;19.24;54.26;99091.28;5048704;28;20036;-76
2022/10/16 06:18:10;;;;;;;9.80;7.45;;;19.30;91.20;;;19.23;54.31;99095.97;5039752;28;20048;-76
2022/10/16 06:20:37;;;;;;;10.40;7.25;;;19.30;91.10;;;19.23;54.61;99098.72;5066286;28;20036;-76
2022/10/16 06:23:04;;;;;;;11.05;7.40;;;19.30;91.30;;;19.25;54.72;99109.41;5066706;28;20040;-76
2022/10/16 06:25:31;;;;;;;10.15;7.53;;;19.30;91.40;;;19.29;54.33;99107.63;5063525;28;20036;-76
2022/10/16 06:27:57;;;;;;;8.00;6.93;;;19.30;91.30;;;19.27;54.42;99120.88;5078019;28;20040;-76
2022/10/16 06:30:23;;;;;;;9.48;7.60;;;19.30;91.20;;;19.28;54.33;99111.50;5060229;28;20044;-76
2022/10/16 06:32:49;;;;;;;8.52;6.43;;;19.30;91.20;;;19.30;54.44;99121.03;5079861;28;20069;-76
2022/10/16 06:35:15;;;;;;;10.25;7.00;;;19.30;91.20;;;19.28;54.35;99128.81;5061247;28;20040;-77
2022/10/16 06:37:41;;;;;;;9.45;7.45;;;19.30;91.20;;;19.32;54.65;99139.97;5080611;28;20502;-77
2022/10/16 06:40:07;;;;;;;9.23;6.90;;;19.30;91.40;;;19.36;54.47;99140.13;5079600;28;20170;-77
2022/10/16 06:42:33;;;;;;;16.90;7.18;;;19.40;91.40;;;19.36;54.29;99151.13;5078203;28;20993;-77
2022/10/16 06:45:03;;;;;;;10.13;7.75;;;19.40;91.20;;;19.33;54.28;99144.34;5093495;28;20040;-77
2022/10/16 06:47:28;;;;;;;9.77;7.22;;;19.30;91.20;;;19.37;54.13;99152.75;5075562;28;20040;-77
2022/10/16 06:49:55;;;;;;;12.43;7.65;;;19.30;91.20;;;19.34;54.09;99151.47;5078015;28;20040;-76
2022/10/16 06:52:22;;;;;;;17.05;9.45;;;19.30;91.20;;;19.36;54.69;99151.97;5062455;28;20050;-77
2022/10/16 06:54:49;;;;;;;18.67;11.65;;;19.30;91.40;;;19.41;54.83;99153.72;5060345;28;20484;-77
2022/10/16 06:57:14;;;;;;;18.50;10.48;;;19.40;91.50;;;19.37;54.94;99142.56;5064410;28;20079;-77
2022/10/16 06:59:41;;;;;;;16.17;9.88;;;19.40;91.50;;;19.36;54.03;99151.13;5080366;28;20052;-77
2022/10/16 07:02:08;;;;;;;14.63;9.93;;;19.40;91.10;;;19.32;53.87;99145.47;5063342;28;20036;-77
2022/10/16 07:04:35;;;;;;;15.45;9.13;;;19.30;91.00;;;19.31;53.73;99143.88;5075561;28;20534;-77
2022/10/16 07:07:01;;;;;;;11.80;8.82;;;19.30;90.90;;;19.30;53.51;99154.03;5069705;28;20050;-77
2022/10/16 07:09:27;;;;;;;16.65;11.75;;;19.40;90.80;;;19.38;53.67;99157.13;5061207;28;20044;-77
2022/10/16 07:11:53;;;;;;;21.00;14.73;;;19.40;91.00;;;19.43;53.92;99154.22;5061323;28;20045;-77
2022/10/16 07:14:21;;;;;;;22.83;13.10;;;19.40;91.00;;;19.42;53.61;99158.09;5078088;28;20123;-77
2022/10/16 07:16:47;;;;;;;23.65;13.90;;;19.40;90.90;;;19.39;53.40;99162.31;5079157;28;20468;-77
2022/10/16 07:19:15;;;;;;;17.48;12.43;;;19.40;90.90;;;19.42;53.50;99163.59;5063693;28;20096;-77
2022/10/16 07:21:41;;;;;;;19.13;13.10;;;19.40;90.90;;;19.39;53.75;99169.75;5062066;28;20407;-77
2022/10/16 07:24:13;;;;;;;24.58;15.02;;;19.40;90.90;;;19.45;53.68;99169.25;5045706;28;20755;-77
2022/10/16 07:26:39;;;;;;;;;;;19.40;91.00;;;19.47;53.98;99168.94;5063505;28;20037;-77
2022/10/16 07:29:13;;;;;;;29.52;17.80;;;19.40;91.10;;;19.47;54.04;99166.19;5063852;28;20058;-77
2022/10/16 07:31:39;;;;;;;21.42;14.30;;;19.50;91.10;;;19.45;53.56;99165.72;5064785;28;20037;-77
2022/10/16 07:34:05;;;;;;;21.95;13.60;;;19.50;91.00;;;19.47;53.44;99168.94;5062539;28;20040;-77
2022/10/16 07:36:31;;;;;;;21.23;13.98;;;19.50;91.00;;;19.45;53.61;99165.72;5063017;28;20920;-77
2022/10/16 07:38:58;;;;;;;21.88;14.98;;;19.50;90.90;;;19.46;53.69;99168.16;5079915;28;20566;-76
2022/10/16 07:41:24;;;;;;;27.70;16.98;;;19.50;90.90;;;19.50;54.02;99168.28;5077479;28;20042;-76
2022/10/16 07:43:52;;;;;;;25.77;18.92;;;19.50;91.10;;;19.54;53.63;99166.53;5063467;28;20437;-77
2022/10/16 07:46:18;;;;;;;31.65;17.63;;;19.50;91.10;;;19.55;53.83;99165.38;5052079;28;20055;-77
2022/10/16 07:48:46;;;;;;;24.58;16.05;;;19.60;91.10;;;19.54;53.51;99174.78;5065879;28;20036;-77
2022/10/16 07:51:17;;;;;;;27.60;18.20;;;19.50;90.90;;;19.53;53.70;99167.63;5045146;28;20063;-76
2022/10/16 07:53:43;;;;;;;24.30;16.05;;;19.60;90.90;;;19.54;53.52;99166.53;5042219;28;20044;-77
2022/10/16 07:56:09;;;;;;;24.00;15.80;;;19.50;90.90;;;19.55;53.42;99168.13;5046297;28;20051;-76
2022/10/16 07:58:37;;;;;;;26.90;17.52;;;19.60;90.90;;;19.58;53.82;99172.97;5043052;28;20081;-76
2022/10/16 08:01:07;;;;;;;30.98;19.75;;;19.60;91.00;;;19.59;53.89;99171.88;5059574;28;20049;-76
2022/10/16 08:03:33;;;;;;;28.02;17.95;;;19.60;91.00;;;19.59;53.61;99165.53;5077055;28;20143;-76
2022/10/16 08:05:59;;;;;;;27.80;17.38;;;19.60;90.90;;;19.58;53.53;99169.44;5045299;28;20491;-76
2022/10/16 08:08:26;;;;;;;26.38;16.77;;;19.60;90.80;;;19.57;53.61;99174.13;5059193;28;20040;-77
2022/10/16 08:10:52;;;;;;;26.00;16.55;;;19.70;90.90;;;19.60;53.42;99178.16;5069640;28;20700;-76
2022/10/16 08:13:18;;;;;;;30.45;18.85;;;19.60;90.80;;;19.60;53.51;99178.16;5078036;28;20048;-77
2022/10/16 08:15:45;;;;;;;30.02;19.38;;;19.70;90.90;;;19.60;53.71;99183.69;5063915;28;20051;-76
2022/10/16 08:18:12;;;;;;;30.23;19.08;;;19.70;91.00;;;19.64;53.83;99190.13;5062821;28;20044;-77
2022/10/16 08:20:38;;;;;;;24.92;17.55;;;19.70;91.00;;;19.65;53.57;99184.31;5027975;28;20039;-77
2022/10/16 08:23:05;;;;;;;29.80;18.88;;;19.70;90.80;;;19.69;53.16;99182.56;5060395;28;20044;-77
2022/10/16 08:25:31;;;;;;;24.95;16.50;;;19.70;90.80;;;19.73;53.22;99179.97;5062654;28;20108;-76
2022/10/16 08:27:57;;;;;;;32.22;18.73;;;19.80;90.80;;;19.78;53.05;99181.75;5071607;28;20552;-76
2022/10/16 08:30:23;;;;;;;31.27;19.15;;;19.80;90.80;;;19.82;53.12;99185.44;5061697;28;20048;-76
2022/10/16 08:32:50;;;;;;;27.30;18.15;;;19.80;90.80;;;19.86;53.18;99181.72;5081690;28;20040;-76
2022/10/16 08:35:16;;;;;;;32.55;20.00;;;19.80;90.80;;;19.87;52.81;99177.03;5081592;28;20420;-76
2022/10/16 08:37:42;;;;;;;27.77;17.33;;;19.90;90.80;;;19.86;52.82;99181.72;5064133;28;20158;-77
2022/10/16 08:40:20;;;;;;;28.70;18.38;;;19.90;90.70;;;19.86;52.86;99181.72;5059461;28;20148;-76
2022/10/16 08:43:27;;;;;;;22.85;17.30;;;19.90;90.70;;;19.86;53.00;99189.19;5050318;28;20084;-76
2022/10/16 08:46:31;;;;;;;32.38;19.65;;;19.90;90.80;;;19.90;53.11;99187.41;5077335;28;20048;-76
2022/10/16 08:48:58;;;;;;;23.23;18.10;;;19.90;90.70;;;19.91;52.87;99184.31;5086044;28;20501;-76
2022/10/16 08:51:27;;;;;;;23.38;18.63;;;20.00;90.80;;;19.93;53.00;99192.25;5063825;28;20461;-76
2022/10/16 08:54:03;;;;;;;32.50;17.95;;;20.00;90.70;;;19.94;52.83;99189.16;5084359;28;20104;-79
2022/10/16 08:56:29;;;;;;;24.05;17.83;;;19.90;90.60;;;19.95;52.59;99198.25;5066592;28;20039;-79
2022/10/16 08:58:57;;;;;;;24.83;18.63;;;20.00;90.70;;;19.99;52.67;99198.41;5050259;28;20169;-78
2022/10/16 09:01:24;;;;;;;21.95;18.40;;;20.00;90.60;;;20.03;52.57;99205.69;5068119;28;20083;-78
2022/10/16 09:04:30;;;;;;;27.73;19.05;;;20.00;90.60;;;20.04;52.63;99200.97;5050985;28;20071;-78
2022/10/16 09:07:17;;;;;;;30.05;19.40;;;20.00;90.60;;;20.10;52.57;99202.44;5091117;28;20066;-78
2022/10/16 09:10:15;;;;;;;25.77;16.63;;;20.10;90.60;;;20.08;52.58;99197.25;5042378;28;20066;-77
2022/10/16 09:13:19;;;;;;;22.77;16.80;;;20.10;90.50;;;20.12;52.23;99198.22;5079316;28;20047;-78
2022/10/16 09:16:17;;;;;;;26.27;18.50;;;20.10;90.50;;;20.14;52.53;99204.19;5070165;28;20068;-78
2022/10/16 09:18:48;;;;;;;25.25;18.00;;;20.10;90.60;;;20.19;52.39;99203.22;5076424;28;20093;-78
2022/10/16 09:21:30;;;;;;;;;;;20.20;90.60;;;20.23;52.64;99206.13;5068990;28;20124;-78
2022/10/16 09:24:18;;;;;;;24.88;18.25;;;20.10;90.70;;;20.23;52.23;99203.38;5092222;28;19924;-78
2022/10/16 09:26:45;;;;;;;29.25;19.50;;;20.20;90.60;;;20.21;52.31;99200.94;5071819;28;20076;-77
2022/10/16 09:29:16;;;;;;;24.40;16.65;;;20.20;90.50;;;20.23;52.00;99192.38;5066445;28;20451;-79
2022/10/16 09:31:43;;;;;;;22.60;16.30;;;20.30;90.50;;;20.19;52.47;99202.41;5067882;28;20104;-81
2022/10/16 09:34:32;;;;;;;23.65;16.95;;;20.30;90.50;;;20.17;52.53;99203.56;5069338;28;20055;-81
2022/10/16 09:36:59;;;;;;;28.33;18.27;;;20.20;90.50;;;20.25;52.22;99201.09;5086359;28;20067;-81
2022/10/16 09:39:25;;;;;;;24.13;18.75;;;20.30;90.60;;;20.17;52.37;99209.06;5073947;28;20102;-81
2022/10/16 09:41:51;;;;;;;24.60;17.05;;;20.30;90.50;;;20.15;52.14;99205.81;5084313;28;20119;-81
2022/10/16 09:44:25;;;;;;;26.38;17.50;;;20.30;90.50;;;20.17;52.60;99203.56;5070609;28;20383;-81
2022/10/16 09:47:02;;;;;;;30.50;17.85;;;20.30;90.50;;;20.15;52.58;99205.03;5066607;28;20527;-81
2022/10/16 09:49:28;;;;;;;19.88;16.30;;;20.30;90.50;;;20.11;52.62;99207.59;5082095;28;20553;-81
2022/10/16 09:52:14;;;;;;;23.65;16.70;;;20.30;90.50;;;20.15;52.52;99213.28;5054678;28;20119;-81
2022/10/16 09:54:55;;;;;;;28.63;18.50;;;20.30;90.50;;;20.22;52.51;99210.00;5087563;28;20113;-81
2022/10/16 09:57:22;;;;;;;23.85;17.05;;;20.40;90.50;;;20.24;52.50;99207.75;5066795;28;20048;-81
2022/10/16 09:59:56;;;;;;;22.30;16.38;;;20.40;90.40;;;20.31;52.40;99203.34;5084784;28;20045;-81
2022/10/16 10:02:37;;;;;;;21.60;16.00;;;20.40;90.40;;;20.31;52.37;99210.81;5065428;28;20079;-80
2022/10/16 10:05:06;;;;;;;24.67;16.48;;;20.40;90.40;;;20.29;52.26;99208.38;5043682;28;20044;-80
2022/10/16 10:07:37;;;;;;;24.30;17.10;;;20.40;90.40;;;20.30;52.32;99212.75;5066054;28;20055;-80
2022/10/16 10:10:04;;;;;;;21.38;16.50;;;20.40;90.50;;;20.33;52.27;99219.56;5069442;28;20041;-80
2022/10/16 10:12:36;;;;;;;25.90;16.00;;;20.40;90.40;;;20.31;52.37;99208.84;5043321;28;20078;-80
2022/10/16 10:15:19;;;;;;;21.08;16.50;;;20.50;90.40;;;20.41;52.18;99217.91;5057015;28;20079;-80
2022/10/16 10:18:19;;;;;;;20.98;15.45;;;20.50;90.30;;;20.42;51.99;99220.31;5038897;28;20044;-80
2022/10/16 10:20:46;;;;;;;19.20;14.25;;;20.50;90.30;;;20.42;52.07;99220.31;5054368;28;20072;-79
2022/10/16 10:23:24;;;;;;;22.77;16.20;;;20.60;90.40;;;20.46;51.99;99215.78;5035707;28;20086;-79
2022/10/16 10:26:03;;;;;;;25.95;15.82;;;20.60;90.30;;;20.45;51.82;99218.88;5035527;28;20164;-79